Terminal Aerodrome Forecast
Issued by NWS Sioux Falls, SD

Home | Current Version | Previous Version | Graphics & Text | Print | Product List | Glossary Off
Versions: 1 2 3 4 5 6 7 8 9 10 11 12 13 14 15

000
FTUS43 KFSD 181622 AAA
TAFHON
TAF AMD
KHON 181622Z 1816/1912 34011KT P6SM -SN SCT025 OVC040
      TEMPO 1819/1823 OVC020
     FM182300 34012KT P6SM OVC015
     FM190400 34005KT P6SM BKN035
     FM190700 32004KT P6SM BKN060=

USA.gov is the U.S. government's official web portal to all federal, state and local government web resources and services.